首页
METAR-TAF:

METAR-TAF

机场 :

策勒, 德国

纬度: 52-36N, 经度: 010-01E, 海拔: 39米

当前天气观测

该预报发布于1小时和0分钟前的03:20 UTC
风速6节,风向东南
温度 14°C
湿度 82%
气压 996 hPa
能见度10公里或以上
少量云层高于6000英尺
多云层高于8000英尺

METAR: ETHC 250320Z 13006KT 9999 FEW060 BKN080 14/11 Q0996 BLU

时间: 06:20 (04:20 UTC)

预报

该预报发布于15小时和5分钟前的13:15 UTC
预报有效从24日的 14点(UTC)到 24日的 23点(UTC)
风速12节,风向南转西南
能见度10公里或以上
少量云层高于4000英尺
多云层高于23000英尺
成为
从 24日的 18点(UTC)到 24日的 20点(UTC)
风速5节,风向东南
能见度10公里或以上
散云层高于5000英尺
多云层高于15000英尺

TAF: ETHC 241315Z 2414/2423 20012KT 9999 NSW FEW040 BKN230 BECMG 2418/2420 13005KT 9999 NSW SCT050 BKN150

超过4000个机场的气象观测和天气预报(METAR&TAF报告)。

可查询的气象台以黄色和红色小点在地图上表示。

将鼠标移到小点上方,可查看气象台名称。

然后点击查看天气观测和预报。

如需切换地图:点击带黑十字的绿色按钮放大地图;点击带横线的绿色按钮缩小地图;或者点击绿色箭头查看邻近地区的地图。


METAR-TAF: